createdAt,value
2023-05-21T00:01:27.381Z,12.50
2023-05-21T00:03:55.017Z,12.40
2023-05-21T00:06:23.385Z,12.40
2023-05-21T00:08:51.064Z,12.30
2023-05-21T00:11:18.267Z,12.20
2023-05-21T00:13:45.754Z,12.20
2023-05-21T00:16:13.052Z,12.20
2023-05-21T00:18:40.771Z,12.10
2023-05-21T00:21:09.038Z,12.10
2023-05-21T00:23:39.853Z,12.10
2023-05-21T00:26:07.020Z,12.00
2023-05-21T00:28:34.445Z,12.00
2023-05-21T00:31:01.793Z,11.90
2023-05-21T00:33:29.445Z,12.30
2023-05-21T00:35:57.545Z,11.90
2023-05-21T00:38:28.018Z,11.80
2023-05-21T00:40:55.837Z,11.80
2023-05-21T00:43:26.327Z,11.80
2023-05-21T00:45:54.123Z,11.70
2023-05-21T00:48:22.437Z,11.70
2023-05-21T00:50:50.551Z,11.70
2023-05-21T00:53:19.551Z,11.70
2023-05-21T00:55:47.336Z,11.60
2023-05-21T00:58:15.023Z,11.70
2023-05-21T01:00:42.279Z,11.60
2023-05-21T01:03:11.092Z,11.60
2023-05-21T01:05:38.975Z,12.10
2023-05-21T01:08:07.729Z,11.50
2023-05-21T01:10:35.034Z,11.50
2023-05-21T01:13:02.896Z,11.40
2023-05-21T01:15:30.578Z,11.40
2023-05-21T01:17:58.444Z,11.40
2023-05-21T01:20:26.324Z,11.30
2023-05-21T01:22:57.754Z,11.30
2023-05-21T01:25:25.406Z,11.20
2023-05-21T01:27:53.181Z,11.20
2023-05-21T01:30:22.526Z,11.10
2023-05-21T01:33:21.440Z,11.10
2023-05-21T01:36:02.944Z,11.10
2023-05-21T01:38:40.593Z,11.10
2023-05-21T01:41:11.456Z,11.10
2023-05-21T01:43:42.359Z,11.10
2023-05-21T01:46:14.977Z,11.10
2023-05-21T01:48:44.574Z,11.00
2023-05-21T01:51:13.157Z,12.80
2023-05-21T01:53:41.372Z,11.00
2023-05-21T01:56:08.752Z,11.00
2023-05-21T01:58:36.383Z,11.00
2023-05-21T02:01:04.748Z,10.90
2023-05-21T02:03:32.518Z,10.90
2023-05-21T02:05:59.884Z,10.80
2023-05-21T02:08:28.025Z,10.70
2023-05-21T02:10:55.908Z,12.30
2023-05-21T02:13:26.309Z,10.70
2023-05-21T02:15:55.155Z,10.70
2023-05-21T02:18:23.893Z,10.60
2023-05-21T02:20:51.192Z,10.60
2023-05-21T02:23:18.708Z,10.60
2023-05-21T02:25:46.354Z,10.60
2023-05-21T02:28:14.403Z,11.90
2023-05-21T02:33:09.644Z,10.50
2023-05-21T02:35:37.117Z,10.50
2023-05-21T02:38:04.888Z,10.50
2023-05-21T02:40:33.239Z,10.40
2023-05-21T02:43:00.880Z,10.40
2023-05-21T02:45:30.676Z,10.40
2023-05-21T02:53:09.371Z,10.30
2023-05-21T02:55:37.147Z,10.30
2023-05-21T02:58:05.287Z,10.30
2023-05-21T03:00:32.842Z,10.20
2023-05-21T03:03:02.042Z,12.00
2023-05-21T03:05:29.377Z,10.20
2023-05-21T03:07:56.960Z,10.20
2023-05-21T03:10:24.241Z,10.20
2023-05-21T03:12:52.839Z,10.20
2023-05-21T03:15:24.362Z,10.20
2023-05-21T03:17:54.313Z,10.20
2023-05-21T03:20:23.919Z,10.90
2023-05-21T03:22:51.348Z,10.20
2023-05-21T03:25:19.154Z,10.30
2023-05-21T03:27:46.740Z,10.30
2023-05-21T03:30:33.853Z,10.30
2023-05-21T03:33:22.790Z,10.30
2023-05-21T03:35:50.097Z,10.40
2023-05-21T03:38:18.798Z,10.40
2023-05-21T03:40:46.123Z,10.40
2023-05-21T03:43:13.701Z,10.40
2023-05-21T03:45:44.224Z,10.40
2023-05-21T03:48:30.888Z,10.40
2023-05-21T03:50:58.518Z,10.50
2023-05-21T03:55:55.497Z,10.50
2023-05-21T04:00:55.002Z,10.70
2023-05-21T04:05:50.966Z,10.70
2023-05-21T04:08:18.480Z,11.20
2023-05-21T04:10:45.872Z,10.80
2023-05-21T04:13:13.511Z,10.90
2023-05-21T04:23:04.913Z,11.40
2023-05-21T04:30:31.672Z,11.50
2023-05-21T04:40:24.755Z,12.10
2023-05-21T04:50:21.421Z,12.40
2023-05-21T04:52:49.476Z,12.60
2023-05-21T04:55:19.239Z,12.70
2023-05-21T04:57:46.814Z,12.90
2023-05-21T05:00:14.859Z,13.10
2023-05-21T05:02:44.172Z,13.30
2023-05-21T05:05:12.133Z,13.40
2023-05-21T05:07:39.621Z,13.60
2023-05-21T05:10:07.503Z,13.70
2023-05-21T05:12:35.290Z,13.90
2023-05-21T05:15:02.539Z,14.10
2023-05-21T05:17:30.632Z,14.20
2023-05-21T05:19:58.930Z,14.40
2023-05-21T05:22:26.976Z,14.50
2023-05-21T05:24:54.306Z,14.70
2023-05-21T05:27:21.733Z,14.80
2023-05-21T05:29:48.946Z,15.00
2023-05-21T05:32:16.409Z,15.20
2023-05-21T05:34:46.408Z,15.40
2023-05-21T05:37:13.950Z,15.50
2023-05-21T05:39:41.297Z,15.70
2023-05-21T05:42:09.171Z,15.80
2023-05-21T05:44:36.597Z,16.80
2023-05-21T05:47:09.229Z,16.20
2023-05-21T05:49:36.998Z,16.40
2023-05-21T05:52:04.987Z,16.60
2023-05-21T05:54:32.291Z,16.80
2023-05-21T05:57:00.339Z,16.90
2023-05-21T05:59:28.480Z,17.20
2023-05-21T06:02:01.335Z,17.30
2023-05-21T06:04:30.235Z,17.60
2023-05-21T06:06:58.627Z,17.80
2023-05-21T06:09:26.529Z,18.00
2023-05-21T06:11:54.161Z,18.20
2023-05-21T06:14:21.417Z,18.40
2023-05-21T06:16:49.852Z,18.60
2023-05-21T06:19:17.527Z,18.90
2023-05-21T06:21:44.990Z,19.00
2023-05-21T06:24:12.908Z,19.10
2023-05-21T06:26:40.926Z,19.30
2023-05-21T06:29:08.735Z,19.60
2023-05-21T06:31:36.648Z,19.60
2023-05-21T06:34:04.348Z,19.80
2023-05-21T06:36:32.627Z,20.00
2023-05-21T06:39:00.032Z,20.30
2023-05-21T06:41:28.471Z,20.70
2023-05-21T06:43:59.225Z,20.80
2023-05-21T06:46:52.791Z,21.10
2023-05-21T06:49:20.339Z,21.40
2023-05-21T06:51:48.074Z,21.90
2023-05-21T06:54:15.329Z,22.60
2023-05-21T06:56:44.089Z,23.00
2023-05-21T06:59:11.598Z,23.60
2023-05-21T07:01:42.788Z,23.90
2023-05-21T07:04:11.278Z,23.60
2023-05-21T07:06:40.208Z,23.80
2023-05-21T07:09:09.012Z,23.70
2023-05-21T07:11:36.879Z,23.60
2023-05-21T07:14:05.919Z,23.80
2023-05-21T07:16:36.371Z,24.20
2023-05-21T07:19:04.058Z,24.60
2023-05-21T07:21:31.866Z,25.20
2023-05-21T07:23:59.437Z,25.90
2023-05-21T07:26:26.968Z,26.00
2023-05-21T07:28:54.189Z,26.50
2023-05-21T07:31:21.939Z,26.90
2023-05-21T07:33:52.454Z,27.10
2023-05-21T07:36:24.036Z,27.40
2023-05-21T07:38:51.349Z,27.10
2023-05-21T07:41:19.091Z,27.50
2023-05-21T07:43:49.889Z,27.60
2023-05-21T07:46:17.692Z,27.70
2023-05-21T07:48:48.806Z,28.10
2023-05-21T07:51:16.828Z,27.90
2023-05-21T07:53:44.669Z,27.30
2023-05-21T07:56:15.282Z,27.40
2023-05-21T07:58:46.032Z,27.50
2023-05-21T08:01:15.609Z,27.80
2023-05-21T08:03:43.042Z,27.50
2023-05-21T08:06:11.548Z,27.60
2023-05-21T08:08:39.426Z,27.90
2023-05-21T08:11:07.078Z,27.90
2023-05-21T08:13:36.250Z,28.30
2023-05-21T08:16:06.276Z,28.10
2023-05-21T08:18:33.691Z,28.80
2023-05-21T08:21:03.173Z,28.50
2023-05-21T08:23:32.213Z,28.80
2023-05-21T08:26:01.592Z,28.50
2023-05-21T08:28:30.924Z,28.20
2023-05-21T08:31:00.290Z,28.40
2023-05-21T08:33:28.365Z,28.00
2023-05-21T08:35:56.259Z,27.70
2023-05-21T08:38:30.275Z,27.50
2023-05-21T08:41:11.824Z,27.90
2023-05-21T08:43:39.729Z,28.10
2023-05-21T08:46:08.657Z,28.20
2023-05-21T08:48:39.271Z,28.50
2023-05-21T08:51:07.298Z,29.20
2023-05-21T08:53:40.726Z,30.10
2023-05-21T08:56:11.245Z,30.10
2023-05-21T08:58:46.533Z,30.40
2023-05-21T09:01:19.767Z,29.60
2023-05-21T09:03:59.108Z,29.70
2023-05-21T09:06:35.961Z,30.20
2023-05-21T09:09:14.062Z,30.10
2023-05-21T09:11:47.596Z,30.20
2023-05-21T09:14:16.220Z,29.80
2023-05-21T09:17:16.560Z,29.30
2023-05-21T09:20:14.732Z,29.40
2023-05-21T09:22:50.901Z,29.90
2023-05-21T09:25:25.468Z,30.20
2023-05-21T09:27:53.312Z,30.20
2023-05-21T09:30:24.782Z,30.80
2023-05-21T09:32:58.225Z,30.90
2023-05-21T09:35:28.342Z,30.80
2023-05-21T09:37:57.818Z,30.10
2023-05-21T09:40:25.300Z,30.00
2023-05-21T09:42:56.336Z,30.80
2023-05-21T09:45:26.509Z,30.30
2023-05-21T09:47:57.661Z,30.40
2023-05-21T09:50:28.486Z,30.90
2023-05-21T09:53:00.378Z,30.80
2023-05-21T09:55:29.552Z,31.30
2023-05-21T09:58:02.106Z,31.40
2023-05-21T10:00:31.536Z,31.10
2023-05-21T10:03:01.923Z,30.50
2023-05-21T10:05:30.980Z,30.60
2023-05-21T10:08:04.581Z,30.60
2023-05-21T10:10:33.230Z,30.80
2023-05-21T10:13:09.559Z,30.00
2023-05-21T10:15:42.335Z,30.20
2023-05-21T10:18:13.922Z,29.90
2023-05-21T10:20:42.275Z,29.80
2023-05-21T10:23:14.581Z,29.90
2023-05-21T10:25:48.026Z,29.60
2023-05-21T10:28:21.023Z,29.40
2023-05-21T10:41:00.098Z,30.70
2023-05-21T10:44:09.454Z,30.10
2023-05-21T10:46:42.828Z,30.70
2023-05-21T10:49:47.969Z,30.70
2023-05-21T10:52:25.431Z,31.10
2023-05-21T10:55:14.063Z,31.20
2023-05-21T10:57:53.942Z,31.20
2023-05-21T11:02:53.501Z,31.40
2023-05-21T11:05:54.713Z,30.40
2023-05-21T11:08:25.403Z,30.40
2023-05-21T11:11:06.611Z,30.00
2023-05-21T11:13:50.639Z,28.90
2023-05-21T11:21:21.218Z,28.60
2023-05-21T11:26:22.636Z,28.10
2023-05-21T11:31:39.123Z,27.50
2023-05-21T11:34:20.016Z,27.20
2023-05-21T11:36:49.701Z,26.80
2023-05-21T11:39:22.698Z,27.20
2023-05-21T11:42:04.513Z,27.20
2023-05-21T11:44:45.883Z,27.10
2023-05-21T11:47:15.179Z,27.50
2023-05-21T11:54:48.740Z,27.00
2023-05-21T11:57:18.969Z,27.30
2023-05-21T11:59:48.056Z,27.40
2023-05-21T12:02:17.062Z,27.30
2023-05-21T12:04:46.661Z,27.30
2023-05-21T12:07:15.682Z,27.30
2023-05-21T12:09:47.655Z,27.40
2023-05-21T12:12:17.039Z,27.10
2023-05-21T12:14:46.582Z,27.50
2023-05-21T12:17:16.931Z,27.80
2023-05-21T12:29:38.849Z,28.80
2023-05-21T12:32:09.315Z,28.60
2023-05-21T12:34:43.556Z,28.30
2023-05-21T12:37:32.570Z,28.60
2023-05-21T12:40:01.833Z,28.60
2023-05-21T12:42:31.085Z,28.30
2023-05-21T12:47:28.459Z,28.00
2023-05-21T12:49:58.143Z,27.90
2023-05-21T12:52:27.451Z,27.90
2023-05-21T12:54:59.073Z,27.70
2023-05-21T12:57:28.497Z,27.20
2023-05-21T12:59:57.665Z,27.20
2023-05-21T13:02:36.020Z,27.10
2023-05-21T13:05:06.542Z,27.30
2023-05-21T13:07:38.483Z,27.60
2023-05-21T13:10:07.103Z,27.90
2023-05-21T13:12:35.514Z,28.10
2023-05-21T13:15:04.143Z,28.80
2023-05-21T13:20:09.162Z,30.10
2023-05-21T13:22:39.307Z,30.10
2023-05-21T13:32:33.906Z,30.20
2023-05-21T13:35:01.262Z,30.30
2023-05-21T13:37:28.813Z,30.20
2023-05-21T13:39:55.958Z,30.20
2023-05-21T14:02:10.744Z,30.10
2023-05-21T14:04:39.386Z,30.20
2023-05-21T14:09:35.850Z,31.80
2023-05-21T14:12:06.434Z,30.20
2023-05-21T14:14:34.357Z,30.10
2023-05-21T14:46:39.602Z,28.10
2023-05-21T15:31:06.959Z,24.40
2023-05-21T15:38:30.188Z,25.00
2023-05-21T16:47:51.300Z,24.40
2023-05-21T16:50:20.030Z,24.40
2023-05-21T17:37:08.769Z,23.00
2023-05-21T17:42:04.295Z,22.20
2023-05-21T18:09:15.644Z,21.10
2023-05-21T18:11:44.772Z,20.40
2023-05-21T18:31:31.163Z,19.00
2023-05-21T18:38:55.407Z,18.80
2023-05-21T18:41:23.386Z,18.00
2023-05-21T18:46:20.100Z,18.70
2023-05-21T18:53:45.258Z,17.60
2023-05-21T18:56:13.951Z,18.10
2023-05-21T18:58:41.685Z,17.20
2023-05-21T19:01:09.765Z,17.70
2023-05-21T19:03:38.347Z,17.30
2023-05-21T19:08:34.701Z,17.30
2023-05-21T19:11:02.659Z,17.40
2023-05-21T19:15:58.839Z,16.80
2023-05-21T19:18:32.369Z,16.80
2023-05-21T19:21:00.705Z,16.40
2023-05-21T19:23:38.380Z,16.70
2023-05-21T19:26:17.292Z,16.10
2023-05-21T19:28:44.918Z,16.70
2023-05-21T19:31:13.018Z,15.80
2023-05-21T19:33:42.880Z,15.90
2023-05-21T19:36:10.708Z,16.20
2023-05-21T19:38:41.487Z,15.60
2023-05-21T19:41:09.289Z,16.30
2023-05-21T19:43:36.533Z,15.30
2023-05-21T19:46:04.350Z,15.10
2023-05-21T19:48:31.987Z,15.30
2023-05-21T19:50:59.851Z,15.40
2023-05-21T19:55:56.706Z,16.20
2023-05-21T19:58:27.107Z,15.10
2023-05-21T20:05:53.297Z,14.50
2023-05-21T20:08:22.264Z,15.00
2023-05-21T20:10:52.223Z,15.50
2023-05-21T20:13:22.498Z,14.70
2023-05-21T20:15:50.733Z,14.50
2023-05-21T20:18:20.640Z,14.60
2023-05-21T20:23:17.832Z,14.70
2023-05-21T20:28:14.675Z,13.50
2023-05-21T20:43:15.365Z,14.70
2023-05-21T20:45:43.818Z,13.60
2023-05-21T20:48:12.219Z,14.50
2023-05-21T20:50:45.901Z,14.00
2023-05-21T21:00:42.154Z,14.20
2023-05-21T21:03:11.479Z,13.90
2023-05-21T21:05:39.564Z,14.00
2023-05-21T21:08:08.324Z,12.50
2023-05-21T21:10:36.532Z,14.00
2023-05-21T21:15:34.491Z,12.80
2023-05-21T21:18:01.948Z,12.90
2023-05-21T21:27:53.920Z,13.10
2023-05-21T21:35:17.671Z,12.70
2023-05-21T21:37:44.978Z,13.40
2023-05-21T21:40:13.159Z,12.20
2023-05-21T21:42:41.921Z,11.40
2023-05-21T21:45:10.043Z,12.30
2023-05-21T21:47:37.978Z,13.30
2023-05-21T21:50:06.410Z,12.40
2023-05-21T21:52:33.685Z,12.50
2023-05-21T21:55:01.506Z,11.90
2023-05-21T21:59:57.813Z,12.00
2023-05-21T22:02:25.119Z,11.70
2023-05-21T22:27:09.327Z,11.30
2023-05-21T22:41:56.407Z,11.80
2023-05-21T22:46:52.126Z,11.40
